createdAt,value
2024-01-08T00:00:46.653Z,6.74
2024-01-08T00:03:14.994Z,6.61
2024-01-08T00:05:42.231Z,6.88
2024-01-08T00:08:09.604Z,6.83
2024-01-08T00:10:40.051Z,6.79
2024-01-08T00:13:07.704Z,6.85
2024-01-08T00:15:34.621Z,6.79
2024-01-08T00:18:02.192Z,6.68
2024-01-08T00:20:29.325Z,6.86
2024-01-08T00:22:56.846Z,6.62
2024-01-08T00:25:24.305Z,6.74
2024-01-08T00:27:52.311Z,6.65
2024-01-08T00:30:19.972Z,6.62
2024-01-08T00:32:48.187Z,6.62
2024-01-08T00:35:15.752Z,6.63
2024-01-08T00:37:43.028Z,6.39
2024-01-08T00:40:11.176Z,6.39
2024-01-08T00:42:39.508Z,6.62
2024-01-08T00:45:07.511Z,6.62
2024-01-08T00:47:34.993Z,6.47
2024-01-08T00:50:02.934Z,6.09
2024-01-08T00:52:30.906Z,6.31
2024-01-08T00:55:05.905Z,6.42
2024-01-08T00:57:34.265Z,6.38
2024-01-08T01:00:02.347Z,6.21
2024-01-08T01:02:29.770Z,6.34
2024-01-08T01:04:57.033Z,6.19
2024-01-08T01:07:24.339Z,6.24
2024-01-08T01:09:51.322Z,6.37
2024-01-08T01:12:18.504Z,5.52
2024-01-08T01:14:45.335Z,6.32
2024-01-08T01:17:12.683Z,6.17
2024-01-08T01:19:39.767Z,6.31
2024-01-08T01:22:06.929Z,5.90
2024-01-08T01:24:33.938Z,6.00
2024-01-08T01:27:01.022Z,6.17
2024-01-08T01:29:28.213Z,6.12
2024-01-08T01:31:55.130Z,6.14
2024-01-08T01:34:22.208Z,6.03
2024-01-08T01:36:49.913Z,5.89
2024-01-08T01:39:17.192Z,5.85
2024-01-08T01:41:44.180Z,5.89
2024-01-08T01:44:11.293Z,5.71
2024-01-08T01:46:43.283Z,5.88
2024-01-08T01:49:22.574Z,5.76
2024-01-08T01:51:51.060Z,5.97
2024-01-08T01:54:21.617Z,5.88
2024-01-08T01:56:54.713Z,5.85
2024-01-08T01:59:22.373Z,5.71
2024-01-08T02:01:49.664Z,5.54
2024-01-08T02:04:19.007Z,5.64
2024-01-08T02:06:46.508Z,5.66
2024-01-08T02:09:17.759Z,5.65
2024-01-08T02:11:45.215Z,5.44
2024-01-08T02:14:13.770Z,5.41
2024-01-08T02:16:41.052Z,5.59
2024-01-08T02:19:08.136Z,5.26
2024-01-08T02:21:35.499Z,5.41
2024-01-08T02:24:02.592Z,5.49
2024-01-08T02:26:29.754Z,5.21
2024-01-08T02:28:56.655Z,5.28
2024-01-08T02:31:23.722Z,5.02
2024-01-08T02:33:50.690Z,5.06
2024-01-08T02:36:17.605Z,4.98
2024-01-08T02:38:44.650Z,4.83
2024-01-08T02:41:11.575Z,5.13
2024-01-08T02:43:38.433Z,5.07
2024-01-08T02:46:05.443Z,5.07
2024-01-08T02:48:32.449Z,5.03
2024-01-08T02:50:59.397Z,4.85
2024-01-08T02:53:26.561Z,5.07
2024-01-08T02:55:53.485Z,4.96
2024-01-08T02:58:20.465Z,4.94
2024-01-08T03:00:47.335Z,4.90
2024-01-08T03:03:14.303Z,4.84
2024-01-08T03:05:41.213Z,4.53
2024-01-08T03:08:08.099Z,4.71
2024-01-08T03:10:34.909Z,4.75
2024-01-08T03:13:01.751Z,4.59
2024-01-08T03:15:28.746Z,4.67
2024-01-08T03:17:55.752Z,4.58
2024-01-08T03:20:24.655Z,4.66
2024-01-08T03:22:53.334Z,4.39
2024-01-08T03:25:20.454Z,4.47
2024-01-08T03:27:47.355Z,4.45
2024-01-08T03:30:14.478Z,4.46
2024-01-08T03:32:41.832Z,4.42
2024-01-08T03:35:09.312Z,4.21
2024-01-08T03:37:36.994Z,4.17
2024-01-08T03:40:06.069Z,4.12
2024-01-08T03:42:33.417Z,4.11
2024-01-08T03:45:00.473Z,4.09
2024-01-08T03:47:27.996Z,4.14
2024-01-08T03:49:56.538Z,3.88
2024-01-08T03:52:24.362Z,3.86
2024-01-08T03:54:51.446Z,3.72
2024-01-08T03:57:18.452Z,3.54
2024-01-08T03:59:47.386Z,3.58
2024-01-08T04:02:15.543Z,3.66
2024-01-08T04:04:46.219Z,2.91
2024-01-08T04:07:13.449Z,3.50
2024-01-08T04:09:42.545Z,3.64
2024-01-08T04:12:09.856Z,3.46
2024-01-08T04:14:37.822Z,3.58
2024-01-08T04:17:08.304Z,3.76
2024-01-08T04:19:35.229Z,3.61
2024-01-08T04:22:02.225Z,3.78
2024-01-08T04:24:29.050Z,3.43
2024-01-08T04:26:55.954Z,3.49
2024-01-08T04:29:22.983Z,3.68
2024-01-08T04:31:50.095Z,3.60
2024-01-08T04:34:17.402Z,3.53
2024-01-08T04:36:44.819Z,3.55
2024-01-08T04:39:12.279Z,3.47
2024-01-08T04:41:41.223Z,3.20
2024-01-08T04:44:09.293Z,3.40
2024-01-08T04:46:36.904Z,3.29
2024-01-08T04:49:05.295Z,3.35
2024-01-08T04:51:32.985Z,2.82
2024-01-08T04:53:59.905Z,3.18
2024-01-08T04:56:29.377Z,3.26
2024-01-08T04:58:57.242Z,3.34
2024-01-08T05:01:24.456Z,3.27
2024-01-08T05:03:51.702Z,3.21
2024-01-08T05:06:19.524Z,3.26
2024-01-08T05:08:46.746Z,3.21
2024-01-08T05:11:14.714Z,2.83
2024-01-08T05:13:42.416Z,2.79
2024-01-08T05:16:10.155Z,2.73
2024-01-08T05:18:38.102Z,2.66
2024-01-08T05:21:06.297Z,2.68
2024-01-08T05:23:34.476Z,2.88
2024-01-08T05:26:02.027Z,2.79
2024-01-08T05:28:30.287Z,2.74
2024-01-08T05:30:57.985Z,2.81
2024-01-08T05:33:26.625Z,2.84
2024-01-08T05:35:53.800Z,2.75
2024-01-08T05:38:21.252Z,2.57
2024-01-08T05:40:48.432Z,2.61
2024-01-08T05:43:15.326Z,2.44
2024-01-08T05:45:42.619Z,2.57
2024-01-08T05:48:13.245Z,2.73
2024-01-08T05:50:41.033Z,2.80
2024-01-08T05:53:08.304Z,2.81
2024-01-08T05:55:35.284Z,2.60
2024-01-08T05:58:02.227Z,2.75
2024-01-08T06:00:29.204Z,2.69
2024-01-08T06:02:56.033Z,2.56
2024-01-08T06:05:23.102Z,2.55
2024-01-08T06:07:50.297Z,2.53
2024-01-08T06:10:17.656Z,2.51
2024-01-08T06:12:47.385Z,2.64
2024-01-08T06:15:14.399Z,2.59
2024-01-08T06:17:45.029Z,2.46
2024-01-08T06:20:13.841Z,2.41
2024-01-08T06:22:40.935Z,2.24
2024-01-08T06:25:08.384Z,2.66
2024-01-08T06:27:35.326Z,2.73
2024-01-08T06:30:02.240Z,2.69
2024-01-08T06:32:29.253Z,2.42
2024-01-08T06:34:56.320Z,2.60
2024-01-08T06:37:23.412Z,2.38
2024-01-08T06:39:50.230Z,1.97
2024-01-08T06:42:17.143Z,2.29
2024-01-08T06:44:45.172Z,2.40
2024-01-08T06:47:12.115Z,2.27
2024-01-08T06:49:38.957Z,2.44
2024-01-08T06:52:06.374Z,2.28
2024-01-08T06:54:33.220Z,2.49
2024-01-08T06:57:00.215Z,1.61
2024-01-08T06:59:27.357Z,2.37
2024-01-08T07:01:54.626Z,2.12
2024-01-08T07:04:21.683Z,2.20
2024-01-08T07:06:49.818Z,1.89
2024-01-08T07:09:16.796Z,2.07
2024-01-08T07:11:43.665Z,1.98
2024-01-08T07:14:11.223Z,1.78
2024-01-08T07:16:38.265Z,1.93
2024-01-08T07:19:05.448Z,1.71
2024-01-08T07:21:32.503Z,1.69
2024-01-08T07:24:00.120Z,2.05
2024-01-08T07:26:27.377Z,2.04
2024-01-08T07:28:54.517Z,1.78
2024-01-08T07:31:21.630Z,1.90
2024-01-08T07:33:48.651Z,2.01
2024-01-08T07:36:15.586Z,2.06
2024-01-08T07:38:42.913Z,1.84
2024-01-08T07:41:10.295Z,1.96
2024-01-08T07:43:38.972Z,1.85
2024-01-08T07:46:06.425Z,1.66
2024-01-08T07:48:33.736Z,1.77
2024-01-08T07:51:01.785Z,1.82
2024-01-08T07:53:28.854Z,1.32
2024-01-08T07:55:55.881Z,1.58
2024-01-08T07:58:28.531Z,1.60
2024-01-08T08:01:03.549Z,1.63
2024-01-08T08:03:31.040Z,1.48
2024-01-08T08:05:59.735Z,1.14
2024-01-08T08:08:27.493Z,1.46
2024-01-08T08:10:54.839Z,1.28
2024-01-08T08:13:21.873Z,1.57
2024-01-08T08:15:49.338Z,1.31
2024-01-08T08:18:16.563Z,1.51
2024-01-08T08:20:44.413Z,1.21
2024-01-08T08:23:13.481Z,1.48
2024-01-08T08:25:42.039Z,1.46
2024-01-08T08:28:09.400Z,1.42
2024-01-08T08:30:36.988Z,1.16
2024-01-08T08:33:04.890Z,1.19
2024-01-08T08:35:32.186Z,1.25
2024-01-08T08:38:00.023Z,1.27
2024-01-08T08:40:27.443Z,1.21
2024-01-08T08:42:56.209Z,1.26
2024-01-08T08:45:23.161Z,1.30
2024-01-08T08:47:52.127Z,1.38
2024-01-08T08:50:19.539Z,1.13
2024-01-08T08:52:47.502Z,1.28
2024-01-08T08:55:15.267Z,1.29
2024-01-08T08:57:42.665Z,1.36
2024-01-08T09:00:10.720Z,1.23
2024-01-08T09:02:38.556Z,1.33
2024-01-08T09:05:07.150Z,1.27
2024-01-08T09:07:34.521Z,1.37
2024-01-08T09:10:02.518Z,1.34
2024-01-08T09:12:29.595Z,1.26
2024-01-08T09:14:57.037Z,1.19
2024-01-08T09:17:24.552Z,1.35
2024-01-08T09:19:56.860Z,1.48
2024-01-08T09:22:25.631Z,1.38
2024-01-08T09:24:52.756Z,1.33
2024-01-08T09:27:19.792Z,1.12
2024-01-08T09:29:46.852Z,1.37
2024-01-08T09:32:14.064Z,1.27
2024-01-08T09:34:40.984Z,1.30
2024-01-08T09:37:07.916Z,1.04
2024-01-08T09:39:35.427Z,0.78
2024-01-08T09:42:05.213Z,1.20
2024-01-08T09:44:50.031Z,0.97
2024-01-08T09:47:18.097Z,0.95
2024-01-08T09:49:46.990Z,0.87
2024-01-08T09:52:15.304Z,0.86
2024-01-08T09:54:43.937Z,0.83
2024-01-08T09:57:11.614Z,0.80
2024-01-08T09:59:38.906Z,0.88
2024-01-08T10:02:15.341Z,0.90
2024-01-08T10:04:42.363Z,0.93
2024-01-08T10:07:13.836Z,1.09
2024-01-08T10:09:41.078Z,0.94
2024-01-08T10:12:09.601Z,0.97
2024-01-08T10:14:37.064Z,0.82
2024-01-08T10:17:04.300Z,0.97
2024-01-08T10:19:32.261Z,0.93
2024-01-08T10:22:13.803Z,0.45
2024-01-08T10:24:41.624Z,0.68
2024-01-08T10:27:09.628Z,0.55
2024-01-08T10:29:37.526Z,0.56
2024-01-08T10:32:06.443Z,0.63
2024-01-08T10:34:35.423Z,0.60
2024-01-08T10:37:02.485Z,0.67
2024-01-08T10:39:43.292Z,0.61
2024-01-08T10:42:18.773Z,0.50
2024-01-08T10:44:46.261Z,0.38
2024-01-08T10:47:20.714Z,0.49
2024-01-08T10:49:58.013Z,0.62
2024-01-08T10:52:27.050Z,0.44
2024-01-08T10:54:59.010Z,0.43
2024-01-08T10:57:42.152Z,0.13
2024-01-08T11:00:14.401Z,0.26
2024-01-08T11:02:43.567Z,0.24
2024-01-08T11:05:11.353Z,0.38
2024-01-08T11:07:42.521Z,0.42
2024-01-08T11:10:13.207Z,0.26
2024-01-08T11:12:44.078Z,0.31
2024-01-08T11:15:16.319Z,0.44
2024-01-08T11:17:55.017Z,0.31
2024-01-08T11:20:42.686Z,0.36
2024-01-08T11:23:28.658Z,0.55
2024-01-08T11:25:55.652Z,0.10
2024-01-08T11:28:22.702Z,0.46
2024-01-08T11:31:17.124Z,0.21
2024-01-08T11:34:11.997Z,0.38
2024-01-08T11:37:19.999Z,0.36
2024-01-08T11:39:50.518Z,0.25
2024-01-08T11:42:19.785Z,0.53
2024-01-08T11:44:46.908Z,0.45
2024-01-08T11:47:14.149Z,0.01
2024-01-08T11:49:41.113Z,0.08
2024-01-08T11:52:10.652Z,0.22
2024-01-08T11:54:37.499Z,0.37
2024-01-08T11:57:05.015Z,-0.15
2024-01-08T11:59:36.915Z,0.40
2024-01-08T12:02:21.039Z,0.47
2024-01-08T12:04:59.209Z,0.48
2024-01-08T12:07:28.421Z,0.59
2024-01-08T12:09:56.852Z,0.63
2024-01-08T12:12:26.798Z,0.73
2024-01-08T12:14:54.325Z,0.49
2024-01-08T12:17:22.080Z,0.49
2024-01-08T12:19:53.906Z,0.42
2024-01-08T12:22:22.319Z,0.28
2024-01-08T12:24:54.053Z,0.39
2024-01-08T12:27:22.432Z,0.39
2024-01-08T12:29:51.683Z,0.49
2024-01-08T12:32:22.057Z,0.52
2024-01-08T12:34:49.687Z,0.35
2024-01-08T12:37:18.794Z,0.12
2024-01-08T12:39:45.900Z,0.00
2024-01-08T12:42:19.955Z,0.08
2024-01-08T12:44:51.537Z,-0.26
2024-01-08T12:47:18.617Z,-0.01
2024-01-08T12:49:46.170Z,0.30
2024-01-08T12:52:13.984Z,0.12
2024-01-08T12:54:43.231Z,0.27
2024-01-08T12:57:12.631Z,0.28
2024-01-08T12:59:53.551Z,0.32
2024-01-08T13:02:22.573Z,0.36
2024-01-08T13:04:53.922Z,0.40
2024-01-08T13:07:21.954Z,0.28
2024-01-08T13:12:16.577Z,-0.09
2024-01-08T13:14:44.015Z,0.04
2024-01-08T13:17:13.595Z,-0.05
2024-01-08T13:19:41.216Z,0.05
2024-01-08T13:22:09.087Z,0.31
2024-01-08T13:24:36.330Z,-0.15
2024-01-08T13:27:03.410Z,0.00
2024-01-08T13:29:30.340Z,0.28
2024-01-08T13:31:57.418Z,0.15
2024-01-08T13:34:24.666Z,0.02
2024-01-08T13:36:51.528Z,0.12
2024-01-08T13:39:18.501Z,0.02
2024-01-08T13:41:46.294Z,0.04
2024-01-08T13:44:16.424Z,0.07
2024-01-08T13:46:43.468Z,-0.21
2024-01-08T13:49:10.467Z,-0.01
2024-01-08T13:51:37.447Z,-0.13
2024-01-08T13:54:06.628Z,-0.36
2024-01-08T13:56:35.274Z,0.03
2024-01-08T13:59:02.567Z,0.00
2024-01-08T14:01:29.606Z,-0.23
2024-01-08T14:03:56.739Z,-0.11
2024-01-08T14:06:23.950Z,-0.32
2024-01-08T14:08:51.341Z,-0.66
2024-01-08T14:11:18.281Z,-1.09
2024-01-08T14:13:45.313Z,-0.24
2024-01-08T14:16:13.181Z,-0.30
2024-01-08T14:18:41.374Z,-0.45
2024-01-08T14:21:08.721Z,-0.52
2024-01-08T14:23:35.888Z,-0.47
2024-01-08T14:26:05.313Z,-0.37
2024-01-08T14:28:32.525Z,-0.36
2024-01-08T14:30:59.536Z,-0.55
2024-01-08T14:33:27.319Z,-0.34
2024-01-08T14:35:54.672Z,-0.47
2024-01-08T14:38:22.040Z,-0.51
2024-01-08T14:40:50.228Z,-0.80
2024-01-08T14:43:17.741Z,-0.68
2024-01-08T14:45:45.556Z,-0.82
2024-01-08T14:48:13.507Z,-0.64
2024-01-08T14:50:40.666Z,-0.63
2024-01-08T14:53:08.043Z,-0.63
2024-01-08T14:55:34.917Z,-0.80
2024-01-08T14:58:01.910Z,-0.63
2024-01-08T15:00:29.124Z,-0.64
2024-01-08T15:02:56.530Z,-0.73
2024-01-08T15:05:26.429Z,-0.87
2024-01-08T15:07:54.772Z,-0.78
2024-01-08T15:10:22.200Z,-1.06
2024-01-08T15:12:49.140Z,-1.01
2024-01-08T15:15:15.951Z,-0.90
2024-01-08T15:17:43.108Z,-0.85
2024-01-08T15:20:10.628Z,-0.88
2024-01-08T15:22:37.591Z,-0.81
2024-01-08T15:25:06.328Z,-0.82
2024-01-08T15:27:33.635Z,-0.84
2024-01-08T15:30:00.646Z,-0.77
2024-01-08T15:32:28.008Z,-0.98
2024-01-08T15:34:54.922Z,-0.89
2024-01-08T15:37:21.980Z,-0.92
2024-01-08T15:39:48.840Z,-0.98
2024-01-08T15:42:16.942Z,-0.94
2024-01-08T15:44:45.351Z,-1.08
2024-01-08T15:47:12.598Z,-1.27
2024-01-08T15:49:39.602Z,-0.96
2024-01-08T15:52:06.949Z,-0.97
2024-01-08T15:54:35.888Z,-0.87
2024-01-08T15:57:02.722Z,-0.95
2024-01-08T15:59:29.942Z,-1.08
2024-01-08T16:01:57.157Z,-1.00
2024-01-08T16:04:24.229Z,-1.08
2024-01-08T16:06:51.246Z,-1.24
2024-01-08T16:09:18.598Z,-1.13
2024-01-08T16:11:45.532Z,-1.37
2024-01-08T16:14:12.806Z,-1.95
2024-01-08T16:16:39.918Z,-1.27
2024-01-08T16:19:07.220Z,-1.27
2024-01-08T16:21:34.411Z,-1.07
2024-01-08T16:24:09.628Z,-1.19
2024-01-08T16:26:41.135Z,-1.17
2024-01-08T16:29:08.859Z,-1.36
2024-01-08T16:31:37.173Z,-1.45
2024-01-08T16:34:04.921Z,-1.23
2024-01-08T16:36:31.964Z,-1.40
2024-01-08T16:38:59.689Z,-1.35
2024-01-08T16:41:27.214Z,-1.49
2024-01-08T16:43:55.592Z,-1.44
2024-01-08T16:46:24.149Z,-1.55
2024-01-08T16:48:51.262Z,-1.49
2024-01-08T16:51:18.292Z,-1.47
2024-01-08T16:53:45.391Z,-1.43
2024-01-08T16:59:15.879Z,-1.57
2024-01-08T17:01:45.216Z,-1.51
2024-01-08T17:04:13.509Z,-1.50
2024-01-08T17:15:46.988Z,-1.63
2024-01-08T17:18:14.413Z,-1.75
2024-01-08T17:20:41.423Z,-1.77
2024-01-08T17:23:08.873Z,-1.91
2024-01-08T17:25:35.998Z,-1.75
2024-01-08T17:56:11.676Z,-2.68
2024-01-08T17:58:38.979Z,-2.25
2024-01-08T18:01:06.503Z,-2.10
2024-01-08T18:03:33.771Z,-2.15
2024-01-08T18:06:04.448Z,-2.37
2024-01-08T18:08:34.702Z,-2.24
2024-01-08T19:05:48.909Z,-2.50
2024-01-08T19:08:18.699Z,-2.28
2024-01-08T19:10:54.835Z,-2.27
2024-01-08T19:13:22.309Z,-2.52
2024-01-08T19:15:49.306Z,-2.39
2024-01-08T19:18:17.173Z,-2.48
2024-01-08T19:20:44.810Z,-2.57
2024-01-08T19:23:13.244Z,-2.55
2024-01-08T19:25:55.583Z,-2.54
2024-01-08T19:28:34.963Z,-2.73
2024-01-08T19:31:26.383Z,-2.80
2024-01-08T19:34:18.205Z,-2.73
2024-01-08T19:36:49.215Z,-2.74
2024-01-08T19:39:16.881Z,-2.67
2024-01-08T19:41:44.657Z,-2.81
2024-01-08T19:44:11.953Z,-2.78
2024-01-08T19:46:39.177Z,-2.81
2024-01-08T19:49:17.167Z,-2.84
2024-01-08T19:56:15.391Z,-2.93
2024-01-08T19:59:12.357Z,-2.86
2024-01-08T20:01:40.296Z,-3.04
2024-01-08T20:04:07.178Z,-2.97
2024-01-08T20:06:52.833Z,-3.06
2024-01-08T20:10:02.261Z,-2.73
2024-01-08T20:12:51.195Z,-2.87
2024-01-08T20:15:24.024Z,-2.80
2024-01-08T20:17:51.144Z,-2.99
2024-01-08T20:23:21.474Z,-3.02
2024-01-08T20:28:51.695Z,-2.84
2024-01-08T20:31:18.834Z,-2.85
2024-01-08T20:36:57.945Z,-3.02
2024-01-08T20:42:14.120Z,-3.20
2024-01-08T20:44:42.262Z,-2.92
2024-01-08T20:47:10.085Z,-3.18
2024-01-08T21:24:21.369Z,-3.51
2024-01-08T21:26:56.045Z,-3.43
2024-01-08T21:32:47.395Z,-3.18
2024-01-08T21:35:20.261Z,-3.65
2024-01-08T21:37:49.649Z,-3.39
2024-01-08T21:40:16.763Z,-3.25
2024-01-08T21:45:32.640Z,-3.35
2024-01-08T21:57:07.878Z,-3.37
2024-01-08T21:59:34.934Z,-3.24
2024-01-08T22:14:06.707Z,-3.29
2024-01-08T22:45:09.056Z,-3.24
2024-01-08T22:47:36.370Z,-3.63
2024-01-08T22:50:04.337Z,-3.42
2024-01-08T22:52:31.489Z,-3.74
2024-01-08T22:54:58.745Z,-3.79
2024-01-08T22:57:25.821Z,-3.83
2024-01-08T22:59:53.127Z,-3.99
2024-01-08T23:02:23.043Z,-4.07
2024-01-08T23:05:45.788Z,-3.86
2024-01-08T23:08:13.199Z,-3.85
2024-01-08T23:13:49.354Z,-4.30
2024-01-08T23:16:16.658Z,-4.43
2024-01-08T23:19:24.928Z,-4.44
2024-01-08T23:22:17.588Z,-4.61
2024-01-08T23:25:05.655Z,-4.45
2024-01-08T23:27:32.748Z,-4.30
2024-01-08T23:30:01.694Z,-4.34
2024-01-08T23:32:30.443Z,-4.18
2024-01-08T23:34:57.585Z,-4.20
2024-01-08T23:40:09.857Z,-3.99
2024-01-08T23:42:40.776Z,-4.17
2024-01-08T23:45:08.206Z,-4.22
2024-01-08T23:47:35.242Z,-4.12
2024-01-08T23:50:02.251Z,-4.22
2024-01-08T23:52:33.339Z,-4.10
2024-01-08T23:55:00.731Z,-4.42
2024-01-08T23:57:27.959Z,-4.19
2024-01-08T23:59:55.045Z,-4.38
